Time;durP1;ratioP1;P1;durP2;ratioP2;P2;SDS_P1;SDS_P2;PMS_P1;PMS_P2;Temp;Humidity;BMP_temperature;BMP_pressure;BME280_temperature;BME280_humidity;BME280_pressure;Samples;Min_cycle;Max_cycle;Signal;HPM_P1;HPM_P2
2024/03/05 00:01:40;;;;;;;4.43;2.08;;;10.70;99.90;;;;;;5023936;28;20033;-81
2024/03/05 00:04:06;;;;;;;4.78;2.20;;;10.70;99.90;;;;;;5023144;28;20036;-81
2024/03/05 00:06:32;;;;;;;4.90;2.50;;;10.70;99.90;;;;;;5021908;28;20034;-81
2024/03/05 00:08:59;;;;;;;6.25;2.17;;;10.70;99.90;;;;;;5022145;28;20029;-81
2024/03/05 00:11:25;;;;;;;6.43;2.45;;;10.70;99.90;;;;;;5024935;28;20518;-81
2024/03/05 00:13:52;;;;;;;4.35;2.05;;;10.60;99.90;;;;;;5024870;28;20410;-80
2024/03/05 00:16:18;;;;;;;7.90;2.40;;;10.60;99.90;;;;;;5022784;28;20030;-81
2024/03/05 00:18:47;;;;;;;6.05;2.00;;;10.50;99.90;;;;;;5021476;28;20471;-81
2024/03/05 00:21:13;;;;;;;7.72;2.22;;;10.60;99.90;;;;;;5022169;28;20021;-81
2024/03/05 00:23:39;;;;;;;7.05;2.25;;;10.50;99.90;;;;;;5024383;28;20114;-81
2024/03/05 00:26:05;;;;;;;4.68;2.05;;;10.50;99.90;;;;;;5026039;28;20184;-81
2024/03/05 00:28:32;;;;;;;4.32;2.33;;;10.50;99.90;;;;;;5025663;28;20116;-81
2024/03/05 00:30:57;;;;;;;1.88;1.40;;;10.50;99.90;;;;;;5030272;28;20083;-81
2024/03/05 00:33:24;;;;;;;2.03;1.70;;;10.50;99.90;;;;;;5024099;28;20029;-81
2024/03/05 00:35:50;;;;;;;5.50;2.08;;;10.50;99.90;;;;;;5020923;28;20100;-81
2024/03/05 00:38:16;;;;;;;7.85;2.50;;;10.50;99.90;;;;;;5025007;28;20117;-81
2024/03/05 00:40:42;;;;;;;4.57;2.08;;;10.50;99.90;;;;;;5022463;28;20053;-81
2024/03/05 00:43:08;;;;;;;9.32;1.83;;;10.40;99.90;;;;;;5025002;28;20426;-81
2024/03/05 00:45:35;;;;;;;3.83;1.50;;;10.40;99.90;;;;;;5024033;28;20064;-81
2024/03/05 00:48:01;;;;;;;4.40;1.52;;;10.40;99.90;;;;;;5027429;28;20112;-81
2024/03/05 00:50:27;;;;;;;1.60;1.42;;;10.40;99.90;;;;;;5026211;28;20427;-81
2024/03/05 00:52:53;;;;;;;4.28;1.85;;;10.30;99.90;;;;;;5022134;28;20080;-81
2024/03/05 00:55:19;;;;;;;6.10;1.75;;;10.30;99.90;;;;;;5024795;28;20177;-81
2024/03/05 00:57:45;;;;;;;4.40;1.52;;;10.30;99.90;;;;;;5025124;28;20028;-81
2024/03/05 01:00:14;;;;;;;4.07;1.60;;;10.30;99.90;;;;;;5016284;28;20033;-81
2024/03/05 01:02:42;;;;;;;3.00;1.65;;;10.20;99.90;;;;;;5022999;28;20029;-81
2024/03/05 01:05:09;;;;;;;3.10;1.38;;;10.20;99.90;;;;;;5025912;28;20030;-80
2024/03/05 01:07:38;;;;;;;3.65;1.52;;;10.20;99.90;;;;;;5021289;28;20044;-81
2024/03/05 01:10:05;;;;;;;5.13;1.88;;;10.10;99.90;;;;;;5021483;28;20076;-81
2024/03/05 01:12:31;;;;;;;4.75;1.73;;;10.10;99.90;;;;;;5021112;28;20388;-81
2024/03/05 01:14:58;;;;;;;8.38;1.77;;;10.10;99.90;;;;;;5022824;28;20018;-81
2024/03/05 01:17:23;;;;;;;1.77;1.42;;;10.00;99.90;;;;;;5025054;28;20028;-81
2024/03/05 01:19:49;;;;;;;4.55;1.38;;;10.00;99.90;;;;;;5021280;28;20022;-81
2024/03/05 01:22:15;;;;;;;3.90;1.40;;;10.00;99.90;;;;;;5022811;28;20037;-81
2024/03/05 01:24:41;;;;;;;4.38;1.60;;;10.00;99.90;;;;;;5024256;28;20056;-81
2024/03/05 01:27:07;;;;;;;4.18;1.52;;;10.00;99.90;;;;;;5017923;28;20108;-81
2024/03/05 01:29:35;;;;;;;3.25;1.27;;;10.00;99.90;;;;;;5025192;28;20021;-81
2024/03/05 01:32:01;;;;;;;2.85;1.40;;;9.90;99.90;;;;;;5020973;28;20026;-81
2024/03/05 01:34:28;;;;;;;4.13;1.75;;;9.90;99.90;;;;;;5026531;28;20032;-81
2024/03/05 01:36:57;;;;;;;1.98;1.60;;;9.90;99.90;;;;;;5014749;28;20097;-81
2024/03/05 01:39:27;;;;;;;3.78;1.58;;;9.90;99.90;;;;;;5021604;28;20019;-82
2024/03/05 01:41:54;;;;;;;3.65;1.60;;;9.90;99.90;;;;;;5018335;28;20499;-81
2024/03/05 01:44:20;;;;;;;4.82;1.77;;;9.90;99.90;;;;;;5021402;28;20373;-81
2024/03/05 01:46:50;;;;;;;4.93;1.38;;;9.90;99.90;;;;;;5025125;28;20060;-81
2024/03/05 01:49:16;;;;;;;4.18;1.52;;;9.90;99.90;;;;;;5024748;28;20475;-81
2024/03/05 01:51:44;;;;;;;3.47;1.90;;;9.90;99.90;;;;;;5020200;28;20026;-81
2024/03/05 01:54:11;;;;;;;4.57;1.40;;;9.90;99.90;;;;;;5023052;28;20052;-81
2024/03/05 01:56:37;;;;;;;3.83;1.73;;;9.90;99.90;;;;;;5020401;28;20137;-81
2024/03/05 01:59:02;;;;;;;8.27;1.80;;;9.90;99.90;;;;;;5024118;28;20120;-81
2024/03/05 02:01:30;;;;;;;5.30;1.85;;;9.90;99.90;;;;;;5020623;28;20026;-81
2024/03/05 02:03:57;;;;;;;2.90;1.83;;;9.90;99.90;;;;;;5019097;28;20549;-80
2024/03/05 02:06:23;;;;;;;3.63;1.58;;;9.90;99.90;;;;;;5018033;28;20030;-81
2024/03/05 02:08:49;;;;;;;2.97;1.60;;;9.80;99.90;;;;;;5024342;28;20034;-81
2024/03/05 02:11:15;;;;;;;4.47;1.60;;;9.80;99.90;;;;;;5020242;28;20471;-81
2024/03/05 02:13:42;;;;;;;2.08;1.75;;;9.80;99.90;;;;;;5027722;28;20026;-80
2024/03/05 02:16:08;;;;;;;3.95;1.85;;;9.80;99.90;;;;;;5020276;28;20022;-80
2024/03/05 02:18:34;;;;;;;10.13;2.00;;;9.80;99.90;;;;;;5020130;28;20071;-81
2024/03/05 02:21:05;;;;;;;9.65;1.90;;;9.80;99.90;;;;;;5023069;28;20036;-81
2024/03/05 02:23:32;;;;;;;6.07;1.65;;;9.80;99.90;;;;;;5019503;28;20391;-81
2024/03/05 02:26:00;;;;;;;11.55;1.75;;;9.80;99.90;;;;;;5024382;28;20069;-81
2024/03/05 02:28:26;;;;;;;4.65;1.60;;;9.80;99.90;;;;;;5026081;28;20033;-81
2024/03/05 02:30:52;;;;;;;6.55;1.90;;;9.80;99.90;;;;;;5018554;28;20025;-81
2024/03/05 02:33:18;;;;;;;6.20;2.15;;;9.80;99.90;;;;;;5023501;28;20495;-81
2024/03/05 02:35:46;;;;;;;8.50;2.55;;;9.80;99.90;;;;;;5017737;28;20483;-81
2024/03/05 02:38:12;;;;;;;2.65;1.60;;;9.70;99.90;;;;;;5019945;28;20022;-81
2024/03/05 02:40:38;;;;;;;7.75;2.38;;;9.70;99.90;;;;;;5023643;28;20028;-80
2024/03/05 02:43:06;;;;;;;7.13;2.35;;;9.70;99.90;;;;;;5014643;28;20092;-81
2024/03/05 02:45:32;;;;;;;5.20;2.17;;;9.70;99.90;;;;;;5023226;28;20033;-81
2024/03/05 02:48:01;;;;;;;2.45;1.83;;;9.70;99.90;;;;;;5023603;28;20281;-81
2024/03/05 02:50:27;;;;;;;6.10;2.17;;;9.70;99.90;;;;;;5019408;28;20069;-80
2024/03/05 02:52:53;;;;;;;3.85;1.90;;;9.60;99.90;;;;;;5021158;28;20034;-80
2024/03/05 02:55:22;;;;;;;8.18;1.77;;;9.60;99.90;;;;;;5019275;28;20028;-80
2024/03/05 02:57:48;;;;;;;8.07;2.50;;;9.60;99.90;;;;;;5020299;28;20076;-80
2024/03/05 03:00:19;;;;;;;5.55;1.75;;;9.60;99.90;;;;;;5021164;28;20271;-81
2024/03/05 03:02:47;;;;;;;4.00;2.25;;;9.50;99.90;;;;;;5023402;28;20026;-81
2024/03/05 03:05:13;;;;;;;9.38;2.47;;;9.60;99.90;;;;;;5019472;28;20033;-80
2024/03/05 03:07:38;;;;;;;6.65;2.50;;;9.50;99.90;;;;;;5015803;28;20034;-80
2024/03/05 03:10:05;;;;;;;4.20;2.15;;;9.50;99.90;;;;;;5021741;28;20038;-80
2024/03/05 03:12:31;;;;;;;9.02;2.20;;;9.50;99.90;;;;;;5023319;28;20030;-80
2024/03/05 03:14:57;;;;;;;6.18;2.53;;;9.60;99.90;;;;;;5013614;28;20025;-80
2024/03/05 03:17:23;;;;;;;6.57;2.08;;;9.50;99.90;;;;;;5022518;28;20021;-81
2024/03/05 03:19:49;;;;;;;11.93;2.50;;;9.60;99.90;;;;;;5015026;28;20034;-80
2024/03/05 03:22:14;;;;;;;6.85;2.22;;;9.60;99.90;;;;;;5024028;28;20520;-80
2024/03/05 03:24:40;;;;;;;6.90;2.05;;;9.60;99.90;;;;;;5016803;28;20049;-80
2024/03/05 03:27:06;;;;;;;9.98;2.10;;;9.60;99.90;;;;;;5024631;28;20028;-80
2024/03/05 03:29:32;;;;;;;9.15;2.35;;;9.60;99.90;;;;;;5028145;28;20030;-80
2024/03/05 03:31:59;;;;;;;7.40;2.00;;;9.60;99.90;;;;;;5023281;28;20068;-80
2024/03/05 03:34:26;;;;;;;9.20;2.45;;;9.50;99.90;;;;;;5017377;28;20022;-80
2024/03/05 03:36:53;;;;;;;8.60;2.17;;;9.50;99.90;;;;;;5017449;28;20076;-80
2024/03/05 03:39:25;;;;;;;6.93;2.25;;;9.50;99.90;;;;;;5023210;28;20018;-80
2024/03/05 03:41:54;;;;;;;11.23;2.15;;;9.60;99.90;;;;;;5018397;28;20031;-80
2024/03/05 03:44:22;;;;;;;10.07;2.60;;;9.60;99.90;;;;;;5023764;28;20484;-80
2024/03/05 03:46:48;;;;;;;5.68;2.05;;;9.60;99.90;;;;;;5024947;28;20076;-80
2024/03/05 03:49:14;;;;;;;8.80;2.60;;;9.60;99.90;;;;;;5026160;28;20032;-80
2024/03/05 03:51:40;;;;;;;3.90;2.20;;;9.60;99.90;;;;;;5022389;28;20029;-81
2024/03/05 03:54:06;;;;;;;11.18;2.60;;;9.60;99.90;;;;;;5021252;28;20525;-80
2024/03/05 03:56:34;;;;;;;8.77;2.50;;;9.60;99.90;;;;;;5016805;28;20033;-80
2024/03/05 03:58:59;;;;;;;7.60;2.28;;;9.60;99.90;;;;;;5030388;28;20048;-80
2024/03/05 04:01:25;;;;;;;9.82;2.38;;;9.70;99.90;;;;;;5022447;28;20080;-81
2024/03/05 04:03:51;;;;;;;10.63;2.53;;;9.70;99.90;;;;;;5030812;28;20471;-80
2024/03/05 04:06:18;;;;;;;14.52;2.75;;;9.80;99.90;;;;;;5025015;28;20071;-80
2024/03/05 04:08:43;;;;;;;8.80;2.33;;;9.80;99.90;;;;;;5024463;28;20025;-80
2024/03/05 04:11:09;;;;;;;9.48;1.80;;;9.80;99.90;;;;;;5023102;28;20033;-81
2024/03/05 04:13:35;;;;;;;11.30;2.60;;;9.80;99.90;;;;;;5023799;28;20022;-80
2024/03/05 04:16:01;;;;;;;7.32;2.58;;;9.80;99.90;;;;;;5025067;28;20049;-80
2024/03/05 04:18:30;;;;;;;6.85;2.60;;;9.90;99.90;;;;;;5024808;28;20096;-80
2024/03/05 04:20:56;;;;;;;7.20;2.45;;;9.80;99.90;;;;;;5019123;28;20025;-80
2024/03/05 04:23:25;;;;;;;9.30;2.42;;;9.80;99.90;;;;;;5026899;28;20022;-81
2024/03/05 04:25:58;;;;;;;5.95;2.15;;;9.80;99.90;;;;;;5026575;28;20045;-81
2024/03/05 04:28:24;;;;;;;11.88;2.40;;;9.90;99.90;;;;;;5013532;28;20022;-80
2024/03/05 04:30:52;;;;;;;13.32;3.17;;;9.90;99.90;;;;;;5027013;28;20022;-80
2024/03/05 04:33:20;;;;;;;7.38;1.85;;;9.80;99.90;;;;;;5027152;28;20014;-80
2024/03/05 04:35:46;;;;;;;9.38;2.45;;;9.90;99.90;;;;;;5022892;28;20484;-81
2024/03/05 04:38:12;;;;;;;7.72;2.28;;;9.90;99.90;;;;;;5028953;28;20033;-80
2024/03/05 04:40:37;;;;;;;13.70;2.22;;;9.90;99.90;;;;;;5024932;28;20403;-81
2024/03/05 04:43:05;;;;;;;14.65;2.92;;;9.90;99.90;;;;;;5022684;28;20399;-80
2024/03/05 04:45:33;;;;;;;6.65;2.35;;;9.90;99.90;;;;;;5018038;28;20507;-80
2024/03/05 04:47:59;;;;;;;5.53;2.58;;;9.90;99.90;;;;;;5022575;28;20022;-81
2024/03/05 04:50:25;;;;;;;12.43;2.70;;;9.90;99.90;;;;;;5028804;28;20185;-81
2024/03/05 04:52:52;;;;;;;7.70;1.88;;;9.90;99.90;;;;;;5023740;28;20460;-80
2024/03/05 04:55:18;;;;;;;9.20;2.63;;;9.90;99.90;;;;;;5018111;28;20181;-80
2024/03/05 04:57:44;;;;;;;6.47;2.22;;;9.90;99.90;;;;;;5018147;28;20022;-81
2024/03/05 05:00:23;;;;;;;13.10;2.30;;;9.90;99.90;;;;;;5025679;28;20047;-81
2024/03/05 05:02:51;;;;;;;8.57;2.35;;;9.90;99.90;;;;;;5022287;28;20479;-80
2024/03/05 05:05:17;;;;;;;7.35;2.20;;;9.90;99.90;;;;;;5021924;28;20018;-80
2024/03/05 05:07:44;;;;;;;9.57;2.72;;;9.90;99.90;;;;;;5018532;28;20057;-81
2024/03/05 05:10:10;;;;;;;6.65;2.55;;;9.90;99.90;;;;;;5015355;28;20025;-80
2024/03/05 05:12:40;;;;;;;8.25;2.28;;;9.90;99.90;;;;;;5019356;28;20021;-80
2024/03/05 05:15:09;;;;;;;8.30;2.15;;;9.90;99.90;;;;;;5025038;28;20096;-81
2024/03/05 05:17:34;;;;;;;3.88;2.00;;;9.90;99.90;;;;;;5017683;28;20107;-81
2024/03/05 05:20:01;;;;;;;5.55;2.00;;;9.90;99.90;;;;;;5025017;28;20060;-81
2024/03/05 05:22:27;;;;;;;5.28;1.98;;;9.90;99.90;;;;;;5023536;28;20018;-81
2024/03/05 05:24:52;;;;;;;6.85;1.95;;;9.90;99.90;;;;;;5024199;28;20046;-81
2024/03/05 05:27:18;;;;;;;5.47;2.08;;;10.00;99.90;;;;;;5020253;28;20033;-81
2024/03/05 05:29:44;;;;;;;8.98;2.45;;;10.00;99.90;;;;;;5017313;28;20411;-81
2024/03/05 05:32:09;;;;;;;7.72;2.17;;;10.10;99.20;;;;;;5022524;28;20480;-80
2024/03/05 05:34:35;;;;;;;7.50;2.42;;;10.10;99.90;;;;;;5022796;28;20448;-81
2024/03/05 05:37:01;;;;;;;7.53;2.22;;;10.20;97.60;;;;;;5028973;28;20026;-80
2024/03/05 05:39:27;;;;;;;11.85;2.55;;;10.10;97.80;;;;;;5024188;28;20100;-80
2024/03/05 05:41:54;;;;;;;7.72;2.22;;;10.20;97.10;;;;;;5028996;28;20071;-80
2024/03/05 05:44:20;;;;;;;6.55;2.13;;;10.10;99.00;;;;;;5016589;28;20109;-80
2024/03/05 05:46:46;;;;;;;6.32;2.38;;;10.10;99.90;;;;;;5022673;28;20112;-80
2024/03/05 05:49:19;;;;;;;5.72;2.15;;;10.10;97.90;;;;;;5021145;28;20030;-80
2024/03/05 05:51:45;;;;;;;8.32;1.85;;;10.10;99.20;;;;;;5025283;28;20044;-80
2024/03/05 05:54:11;;;;;;;9.43;2.10;;;10.10;98.40;;;;;;5033761;28;20022;-80
2024/03/05 05:56:38;;;;;;;7.97;2.17;;;10.10;99.10;;;;;;5026819;28;20029;-80
2024/03/05 05:59:05;;;;;;;6.20;2.28;;;10.10;99.90;;;;;;5017505;28;20030;-80
2024/03/05 06:01:33;;;;;;;8.45;3.03;;;10.10;95.60;;;;;;5021145;28;20026;-80
2024/03/05 06:04:02;;;;;;;12.07;2.80;;;10.20;97.60;;;;;;5026974;28;20556;-80
2024/03/05 06:06:28;;;;;;;8.25;2.15;;;10.10;99.30;;;;;;5024965;28;20026;-80
2024/03/05 06:08:53;;;;;;;10.50;2.05;;;10.10;99.90;;;;;;5024776;28;20033;-80
2024/03/05 06:11:19;;;;;;;12.40;3.05;;;10.10;97.20;;;;;;5019392;28;20586;-80
2024/03/05 06:13:46;;;;;;;7.57;2.33;;;10.10;95.20;;;;;;5022076;28;20468;-80
2024/03/05 06:16:12;;;;;;;4.75;2.10;;;10.10;95.70;;;;;;5026645;28;20029;-80
2024/03/05 06:18:38;;;;;;;6.97;2.00;;;10.10;98.20;;;;;;5024242;28;20032;-80
2024/03/05 06:21:07;;;;;;;9.80;2.33;;;10.20;96.80;;;;;;5028032;28;20021;-80
2024/03/05 06:23:34;;;;;;;7.90;2.28;;;10.10;98.80;;;;;;5025068;28;20053;-80
2024/03/05 06:26:01;;;;;;;11.07;2.60;;;10.00;99.60;;;;;;5023816;28;20073;-80
2024/03/05 06:28:27;;;;;;;6.72;2.45;;;10.00;99.90;;;;;;5024653;28;20104;-80
2024/03/05 06:30:52;;;;;;;9.25;2.60;;;10.00;99.90;;;;;;5013502;28;20109;-80
2024/03/05 06:33:19;;;;;;;7.50;1.65;;;10.00;99.90;;;;;;5031544;28;20032;-80
2024/03/05 06:35:46;;;;;;;10.25;2.40;;;10.00;99.90;;;;;;5028935;28;20475;-80
2024/03/05 06:38:13;;;;;;;14.40;2.67;;;10.00;99.90;;;;;;5033218;28;20128;-80
2024/03/05 06:40:38;;;;;;;10.20;2.53;;;10.10;99.90;;;;;;5026234;28;20468;-80
2024/03/05 06:43:30;;;;;;;8.45;2.50;;;10.10;99.90;;;;;;5015558;28;20044;-80
2024/03/05 06:45:57;;;;;;;5.70;2.40;;;10.20;99.90;;;;;;5019915;28;20029;-77
2024/03/05 06:48:26;;;;;;;9.98;2.70;;;10.20;99.90;;;;;;5020579;28;20607;-77
2024/03/05 06:50:58;;;;;;;11.50;2.85;;;10.20;99.90;;;;;;5021982;28;20025;-77
2024/03/05 06:58:53;;;;;;;6.35;2.50;;;10.10;99.90;;;;;;5018451;28;20101;-77
2024/03/05 07:01:22;;;;;;;10.52;2.45;;;10.30;99.90;;;;;;5020195;28;20021;-77
2024/03/05 07:03:48;;;;;;;14.20;2.60;;;10.40;92.20;;;;;;5020074;28;20096;-77
2024/03/05 07:06:14;;;;;;;9.20;2.20;;;10.50;94.20;;;;;;5013056;28;20034;-77
2024/03/05 07:08:44;;;;;;;7.95;2.30;;;10.60;90.80;;;;;;5021036;28;20288;-77
2024/03/05 07:11:12;;;;;;;10.10;2.53;;;10.60;84.60;;;;;;5019566;28;20084;-77
2024/03/05 07:13:40;;;;;;;17.83;5.82;;;10.70;80.20;;;;;;5019680;28;20390;-77
2024/03/05 07:16:09;;;;;;;31.17;6.70;;;10.60;99.90;;;;;;5019878;28;20040;-76
2024/03/05 07:18:36;;;;;;;33.10;7.50;;;10.50;99.90;;;;;;5017668;28;20438;-77
2024/03/05 07:21:03;;;;;;;20.95;7.07;;;10.50;99.90;;;;;;5018036;28;20025;-77
2024/03/05 07:23:29;;;;;;;33.03;6.53;;;10.40;99.90;;;;;;5019086;28;20041;-77
2024/03/05 07:25:58;;;;;;;14.00;5.85;;;10.40;99.90;;;;;;5019032;28;20054;-77
2024/03/05 07:28:26;;;;;;;25.65;5.82;;;10.40;99.90;;;;;;5021700;28;20026;-77
2024/03/05 07:30:53;;;;;;;11.90;5.20;;;10.30;99.90;;;;;;5019045;28;20033;-77
2024/03/05 07:33:19;;;;;;;11.60;5.40;;;10.40;99.90;;;;;;5025127;28;20048;-76
2024/03/05 07:35:46;;;;;;;13.05;5.30;;;10.30;99.90;;;;;;5027541;28;20032;-77
2024/03/05 07:38:15;;;;;;;10.35;5.03;;;10.40;99.90;;;;;;5022841;28;20022;-76
2024/03/05 07:40:47;;;;;;;14.40;4.53;;;10.40;99.90;;;;;;5022368;28;20029;-77
2024/03/05 07:43:13;;;;;;;;;;;10.40;99.90;;;;;;5024921;28;20029;-77
2024/03/05 07:45:39;;;;;;;7.75;4.07;;;10.40;99.90;;;;;;5023556;28;19906;-77
2024/03/05 07:48:05;;;;;;;9.40;4.05;;;10.40;99.90;;;;;;5026422;28;20064;-76
2024/03/05 07:50:31;;;;;;;8.43;3.85;;;10.40;99.90;;;;;;5023911;28;20030;-77
2024/03/05 07:52:57;;;;;;;10.45;3.95;;;10.40;99.90;;;;;;5024999;28;20497;-77
2024/03/05 07:55:24;;;;;;;10.20;3.40;;;10.40;99.90;;;;;;5022473;28;20073;-77
2024/03/05 07:57:52;;;;;;;11.70;4.00;;;10.40;99.90;;;;;;5025026;28;20044;-76
2024/03/05 08:00:22;;;;;;;7.90;3.50;;;10.50;99.90;;;;;;5023247;28;20022;-77
2024/03/05 08:02:50;;;;;;;15.52;3.30;;;10.50;99.90;;;;;;5023518;28;20029;-78
2024/03/05 08:05:18;;;;;;;10.07;3.92;;;10.50;99.90;;;;;;5024099;28;20456;-76
2024/03/05 08:07:45;;;;;;;6.05;2.85;;;10.50;99.90;;;;;;5022877;28;20388;-77
2024/03/05 08:10:12;;;;;;;10.95;3.35;;;10.60;99.90;;;;;;5025684;28;20030;-77
2024/03/05 08:12:43;;;;;;;12.07;3.85;;;10.70;99.90;;;;;;5024094;28;20031;-77
2024/03/05 08:15:12;;;;;;;9.82;4.38;;;10.80;99.90;;;;;;5023402;28;20026;-76
2024/03/05 08:17:40;;;;;;;10.45;4.05;;;10.90;99.90;;;;;;5024680;28;20044;-77
2024/03/05 08:20:07;;;;;;;10.70;4.47;;;10.90;99.90;;;;;;5023636;28;20026;-76
2024/03/05 08:22:36;;;;;;;11.95;4.05;;;11.00;99.90;;;;;;5029347;28;20093;-76
2024/03/05 08:25:09;;;;;;;13.73;4.57;;;11.10;99.90;;;;;;5022692;28;20050;-76
2024/03/05 08:27:38;;;;;;;14.38;4.35;;;11.10;99.90;;;;;;5024445;28;20124;-77
2024/03/05 08:30:09;;;;;;;9.18;4.18;;;11.20;99.90;;;;;;5023314;28;20030;-76
2024/03/05 08:32:36;;;;;;;14.57;3.90;;;11.30;99.90;;;;;;5022471;28;20038;-77
2024/03/05 08:35:03;;;;;;;10.40;4.15;;;11.30;99.90;;;;;;5025185;28;20057;-77
2024/03/05 08:37:28;;;;;;;14.25;3.85;;;11.30;99.90;;;;;;5020592;28;20112;-77
2024/03/05 08:39:54;;;;;;;12.07;3.90;;;11.40;99.90;;;;;;5022931;28;20120;-77
2024/03/05 08:42:20;;;;;;;7.43;3.65;;;11.40;99.90;;;;;;5022822;28;20033;-77
2024/03/05 08:44:47;;;;;;;14.27;4.15;;;11.40;99.90;;;;;;5024818;28;20025;-77
2024/03/05 08:47:13;;;;;;;17.80;4.85;;;11.60;99.90;;;;;;5021533;28;20383;-77
2024/03/05 08:49:38;;;;;;;8.80;3.20;;;11.70;99.90;;;;;;5023075;28;20018;-77
2024/03/05 08:52:04;;;;;;;10.90;3.50;;;11.80;99.90;;;;;;5022071;28;20029;-77
2024/03/05 08:54:31;;;;;;;9.98;3.08;;;11.90;99.90;;;;;;5022856;28;20025;-76
2024/03/05 08:57:00;;;;;;;7.82;3.63;;;11.80;99.90;;;;;;5023953;28;20026;-76
2024/03/05 08:59:26;;;;;;;8.43;3.85;;;11.90;99.90;;;;;;5022511;28;20129;-77
2024/03/05 09:01:53;;;;;;;10.30;3.95;;;11.80;99.90;;;;;;5022644;28;20052;-77
2024/03/05 09:04:23;;;;;;;15.73;4.82;;;11.90;99.90;;;;;;5022836;28;20163;-77
2024/03/05 09:06:50;;;;;;;13.23;5.30;;;11.90;99.90;;;;;;5019014;28;20061;-77
2024/03/05 09:09:16;;;;;;;13.50;5.30;;;11.90;99.90;;;;;;5023319;28;20044;-77
2024/03/05 09:11:42;;;;;;;15.57;4.97;;;11.90;99.90;;;;;;5022743;28;20534;-77
2024/03/05 09:14:08;;;;;;;14.52;5.78;;;11.90;99.90;;;;;;5024227;28;20120;-77
2024/03/05 09:16:37;;;;;;;8.10;5.28;;;11.90;99.90;;;;;;5014321;28;20022;-77
2024/03/05 09:19:03;;;;;;;12.43;5.53;;;11.80;99.90;;;;;;5023650;28;20030;-77
2024/03/05 09:21:31;;;;;;;13.32;5.38;;;11.90;99.90;;;;;;5022004;28;20029;-77
2024/03/05 09:23:57;;;;;;;11.95;5.10;;;11.90;99.90;;;;;;5021896;28;20111;-77
2024/03/05 09:26:22;;;;;;;16.58;6.30;;;11.90;99.90;;;;;;5023814;28;20076;-77
2024/03/05 09:28:48;;;;;;;11.77;6.15;;;11.90;99.90;;;;;;5021698;28;20365;-77
2024/03/05 09:31:14;;;;;;;11.60;6.78;;;11.90;99.90;;;;;;5024644;28;20022;-77
2024/03/05 09:33:40;;;;;;;12.48;6.10;;;12.00;99.90;;;;;;5021722;28;20088;-77
2024/03/05 09:36:08;;;;;;;11.30;7.18;;;12.00;99.90;;;;;;5021198;28;20018;-77
2024/03/05 09:38:34;;;;;;;11.65;6.78;;;11.90;99.90;;;;;;5022330;28;20026;-77
2024/03/05 09:41:01;;;;;;;10.73;6.78;;;12.00;99.90;;;;;;5023001;28;20022;-77
2024/03/05 09:43:28;;;;;;;16.48;6.45;;;12.10;99.90;;;;;;5021014;28;20028;-77
2024/03/05 09:46:04;;;;;;;11.95;6.13;;;12.10;99.90;;;;;;5021941;28;20032;-77
2024/03/05 09:48:31;;;;;;;17.08;6.00;;;12.10;99.90;;;;;;5023977;28;20018;-77
2024/03/05 09:50:57;;;;;;;15.23;6.00;;;12.20;99.90;;;;;;5020686;28;20117;-77
2024/03/05 09:53:22;;;;;;;9.75;6.50;;;12.20;99.90;;;;;;5020364;28;20104;-77
2024/03/05 09:55:52;;;;;;;9.98;5.50;;;12.20;99.90;;;;;;5020365;28;20025;-77
2024/03/05 09:58:34;;;;;;;11.80;5.95;;;12.20;99.90;;;;;;5023428;28;20022;-77
2024/03/05 10:01:01;;;;;;;8.80;5.63;;;12.20;99.90;;;;;;5021216;28;20253;-77
2024/03/05 10:03:27;;;;;;;13.20;5.63;;;12.30;99.90;;;;;;5021688;28;20053;-76
2024/03/05 10:05:53;;;;;;;15.88;5.55;;;12.20;99.90;;;;;;5020063;28;20093;-77
2024/03/05 10:08:18;;;;;;;14.95;5.82;;;12.30;99.90;;;;;;5019471;28;20117;-76
2024/03/05 10:10:46;;;;;;;12.90;5.88;;;12.30;99.90;;;;;;5023343;28;20462;-76
2024/03/05 10:13:12;;;;;;;17.77;5.72;;;12.50;99.90;;;;;;5022285;28;20467;-76
2024/03/05 10:15:42;;;;;;;12.95;6.05;;;12.50;99.90;;;;;;5023229;28;20071;-77
2024/03/05 10:18:08;;;;;;;11.73;5.40;;;12.50;98.40;;;;;;5020812;28;20018;-77
2024/03/05 10:20:36;;;;;;;12.68;5.57;;;12.70;99.90;;;;;;5023134;28;20076;-77
2024/03/05 10:23:05;;;;;;;14.93;5.90;;;12.80;95.60;;;;;;5015284;28;20025;-77
2024/03/05 10:25:33;;;;;;;9.05;5.43;;;12.70;95.90;;;;;;5021995;28;20468;-77
2024/03/05 10:28:02;;;;;;;10.00;5.25;;;12.90;99.90;;;;;;5018659;28;20057;-77
2024/03/05 10:30:32;;;;;;;17.10;5.20;;;13.00;96.50;;;;;;5021242;28;20029;-77
2024/03/05 10:32:59;;;;;;;11.10;6.20;;;13.00;99.90;;;;;;5020098;28;20037;-77
2024/03/05 10:35:26;;;;;;;9.90;5.85;;;13.10;92.40;;;;;;5018423;28;20022;-77
2024/03/05 10:38:03;;;;;;;10.32;5.72;;;13.20;91.10;;;;;;5015808;28;20443;-77
2024/03/05 10:40:34;;;;;;;19.55;7.45;;;13.20;89.50;;;;;;5014744;28;20022;-77
2024/03/05 10:43:08;;;;;;;16.77;5.80;;;13.30;92.00;;;;;;5023322;28;20021;-78
2024/03/05 10:45:37;;;;;;;9.15;5.80;;;13.30;96.90;;;;;;5015754;28;20267;-77
2024/03/05 10:48:05;;;;;;;12.73;7.10;;;13.30;94.60;;;;;;5022102;28;20033;-77
2024/03/05 10:50:35;;;;;;;8.73;5.72;;;13.30;81.80;;;;;;5022733;28;20507;-76
2024/03/05 10:53:04;;;;;;;11.65;5.80;;;13.20;95.00;;;;;;5023922;28;20026;-77
2024/03/05 10:55:33;;;;;;;12.45;5.95;;;13.30;99.90;;;;;;5023858;28;20500;-76
2024/03/05 11:00:39;;;;;;;17.77;6.78;;;13.60;99.00;;;;;;5021162;28;20444;-77
2024/03/05 11:03:16;;;;;;;9.93;5.60;;;13.60;91.70;;;;;;5021916;28;20393;-77
2024/03/05 11:05:49;;;;;;;11.05;6.18;;;13.70;75.00;;;;;;5019089;28;20491;-76
2024/03/05 11:08:19;;;;;;;14.10;5.65;;;13.80;69.30;;;;;;5022183;28;20044;-77
2024/03/05 11:10:50;;;;;;;18.83;6.68;;;13.80;44.50;;;;;;5023875;28;20037;-77
2024/03/05 11:13:18;;;;;;;12.27;5.75;;;14.00;63.80;;;;;;5021180;28;20394;-76
2024/03/05 11:15:44;;;;;;;9.98;5.03;;;14.00;44.80;;;;;;5016926;28;20033;-77
2024/03/05 11:18:46;;;;;;;13.52;5.20;;;14.10;51.20;;;;;;5019986;28;20025;-77
2024/03/05 11:21:14;;;;;;;13.27;5.25;;;14.20;18.50;;;;;;4970271;28;20503;-77
2024/03/05 11:23:52;;;;;;;8.80;5.00;;;14.20;35.40;;;;;;5011376;28;20046;-77
2024/03/05 11:26:20;;;;;;;10.43;4.90;;;14.10;19.60;;;;;;5020544;28;20058;-76
2024/03/05 11:28:47;;;;;;;9.45;4.28;;;14.10;39.80;;;;;;5020862;28;20029;-77
2024/03/05 11:31:17;;;;;;;14.18;5.30;;;14.20;47.40;;;;;;5022484;28;20029;-77
2024/03/05 11:33:44;;;;;;;13.45;4.85;;;14.20;45.00;;;;;;5020042;28;20041;-76
2024/03/05 11:36:23;;;;;;;15.93;5.65;;;14.30;41.50;;;;;;5020522;28;20025;-77
2024/03/05 11:39:09;;;;;;;9.30;4.80;;;14.40;1.00;;;;;;5022971;28;20053;-77
2024/03/05 11:41:37;;;;;;;7.93;5.18;;;14.50;1.90;;;;;;5022808;28;20552;-77
2024/03/05 11:44:03;;;;;;;16.95;5.00;;;14.40;10.40;;;;;;5016880;28;20026;-77
2024/03/05 11:46:46;;;;;;;10.25;4.70;;;14.50;16.50;;;;;;5021429;28;20445;-77
2024/03/05 11:49:14;;;;;;;11.68;4.97;;;14.50;1.00;;;;;;5022685;28;20036;-77
2024/03/05 11:51:45;;;;;;;9.75;5.53;;;14.60;24.60;;;;;;5019611;28;20391;-77
2024/03/05 11:54:13;;;;;;;9.27;5.28;;;14.80;1.00;;;;;;5019684;28;20271;-77
2024/03/05 11:56:43;;;;;;;11.35;4.65;;;14.90;1.00;;;;;;5022782;28;20026;-77
2024/03/05 11:59:10;;;;;;;10.35;5.20;;;15.00;1.00;;;;;;5020811;28;20026;-77
2024/03/05 12:01:38;;;;;;;9.25;4.50;;;15.00;1.00;;;;;;5019160;28;20104;-77
2024/03/05 12:04:08;;;;;;;8.90;4.50;;;15.10;1.00;;;;;;5022428;28;20030;-77
2024/03/05 12:06:39;;;;;;;8.38;4.65;;;15.10;1.00;;;;;;5020698;28;20491;-76
2024/03/05 12:09:10;;;;;;;10.30;4.45;;;15.20;1.00;;;;;;5021333;28;20405;-77
2024/03/05 12:11:36;;;;;;;18.52;4.90;;;15.30;1.00;;;;;;5018059;28;20030;-77
2024/03/05 12:14:11;;;;;;;11.82;4.68;;;15.30;1.00;;;;;;5019202;28;20032;-77
2024/03/05 12:16:37;;;;;;;8.02;4.80;;;15.50;1.00;;;;;;5020028;28;20104;-77
2024/03/05 12:19:06;;;;;;;7.68;4.65;;;15.50;1.00;;;;;;5023635;28;20018;-77
2024/03/05 12:21:33;;;;;;;8.55;4.18;;;15.60;99.90;;;;;;5024660;28;20026;-77
2024/03/05 12:23:59;;;;;;;11.45;4.18;;;15.60;99.90;;;;;;5022290;28;20026;-77
2024/03/05 12:26:25;;;;;;;13.35;4.38;;;15.60;1.00;;;;;;5024161;28;20033;-77
2024/03/05 12:28:51;;;;;;;10.52;5.28;;;15.70;1.00;;;;;;5025214;28;20029;-77
2024/03/05 12:31:18;;;;;;;6.35;4.53;;;15.80;99.90;;;;;;5022388;28;20108;-77
2024/03/05 12:33:44;;;;;;;10.18;3.90;;;15.70;99.90;;;;;;5021378;28;20033;-76
2024/03/05 12:36:14;;;;;;;11.55;4.22;;;15.70;19.50;;;;;;5024262;28;20029;-77
2024/03/05 12:38:40;;;;;;;9.45;5.03;;;15.70;99.90;;;;;;5023467;28;20500;-77
2024/03/05 12:41:06;;;;;;;10.15;5.30;;;15.80;99.90;;;;;;5024131;28;20415;-77
2024/03/05 12:43:32;;;;;;;9.70;5.82;;;15.80;99.90;;;;;;5022388;28;20025;-77
2024/03/05 12:46:06;;;;;;;14.88;5.20;;;15.90;99.90;;;;;;5026178;28;20097;-77
2024/03/05 12:48:34;;;;;;;11.32;6.25;;;15.90;1.00;;;;;;5022929;28;20029;-77
2024/03/05 12:51:00;;;;;;;8.00;6.28;;;16.00;1.00;;;;;;5024151;28;20017;-77
2024/03/05 12:53:26;;;;;;;9.57;5.80;;;15.90;99.90;;;;;;5022221;28;20030;-77
2024/03/05 12:56:02;;;;;;;13.85;5.60;;;15.90;99.90;;;;;;5024389;28;20025;-77